createdAt,value
2019-05-23T00:01:12.362Z,22.97
2019-05-23T00:03:59.028Z,22.53
2019-05-23T00:06:29.715Z,25.43
2019-05-23T00:09:00.904Z,25.30
2019-05-23T00:11:55.501Z,23.43
2019-05-23T00:14:34.161Z,24.57
2019-05-23T00:17:04.168Z,22.80
2019-05-23T00:19:34.201Z,25.68
2019-05-23T00:22:06.305Z,22.70
2019-05-23T00:24:37.495Z,22.87
2019-05-23T00:27:10.112Z,24.10
2019-05-23T00:29:40.782Z,24.13
2019-05-23T00:32:21.020Z,24.25
2019-05-23T00:34:51.390Z,26.25
2019-05-23T00:37:23.018Z,30.53
2019-05-23T00:39:53.454Z,29.70
2019-05-23T00:42:23.121Z,26.68
2019-05-23T00:44:53.956Z,25.43
2019-05-23T00:47:23.658Z,27.02
2019-05-23T00:49:53.317Z,31.42
2019-05-23T00:52:23.193Z,30.50
2019-05-23T00:54:52.925Z,29.92
2019-05-23T00:57:22.458Z,32.15
2019-05-23T00:59:52.850Z,30.02
2019-05-23T01:02:26.115Z,27.73
2019-05-23T01:04:56.158Z,28.07
2019-05-23T01:07:25.875Z,32.90
2019-05-23T01:09:55.366Z,26.45
2019-05-23T01:12:24.890Z,23.57
2019-05-23T01:14:55.531Z,22.42
2019-05-23T01:17:27.152Z,24.67
2019-05-23T01:19:58.031Z,26.10
2019-05-23T01:22:28.459Z,26.90
2019-05-23T01:24:58.250Z,27.22
2019-05-23T01:27:27.916Z,25.85
2019-05-23T01:29:58.975Z,25.75
2019-05-23T01:32:44.815Z,27.42
2019-05-23T02:33:15.374Z,37.83
2019-05-23T02:35:44.698Z,41.00
2019-05-23T02:38:36.293Z,38.48
2019-05-23T02:41:26.469Z,42.80
2019-05-23T02:44:01.620Z,40.58
2019-05-23T02:46:38.192Z,37.95
2019-05-23T02:49:11.295Z,35.60
2019-05-23T02:51:42.009Z,41.37
2019-05-23T02:54:13.928Z,36.55
2019-05-23T02:56:44.924Z,29.75
2019-05-23T02:59:52.976Z,38.83
2019-05-23T03:02:58.933Z,35.92
2019-05-23T03:05:29.224Z,36.20
2019-05-23T03:08:00.630Z,47.78
2019-05-23T03:10:49.948Z,39.42
2019-05-23T03:13:21.037Z,39.92
2019-05-23T03:15:51.672Z,37.15
2019-05-23T03:18:23.409Z,35.60
2019-05-23T03:20:53.006Z,32.53
2019-05-23T03:23:22.951Z,38.85
2019-05-23T03:26:30.108Z,40.48
2019-05-23T03:29:00.011Z,38.67
2019-05-23T03:31:37.650Z,35.85
2019-05-23T03:34:09.683Z,42.48
2019-05-23T03:36:39.511Z,43.17
2019-05-23T03:39:12.736Z,44.30
2019-05-23T03:41:45.641Z,36.60
2019-05-23T03:44:15.295Z,37.08
2019-05-23T03:46:47.419Z,32.83
2019-05-23T03:49:19.781Z,33.30
2019-05-23T03:51:49.305Z,32.20
2019-05-23T03:54:19.108Z,31.35
2019-05-23T03:56:50.370Z,33.42
2019-05-23T03:59:20.467Z,36.40
2019-05-23T04:01:52.501Z,39.10
2019-05-23T04:04:22.129Z,35.68
2019-05-23T04:06:52.739Z,37.90
2019-05-23T04:09:22.222Z,34.10
2019-05-23T04:11:52.162Z,33.05
2019-05-23T04:14:21.622Z,34.33
2019-05-23T04:16:51.195Z,32.35
2019-05-23T04:19:20.706Z,34.43
2019-05-23T04:22:17.467Z,35.35
2019-05-23T04:24:47.216Z,32.73
2019-05-23T04:27:16.943Z,34.08
2019-05-23T04:29:46.515Z,29.05
2019-05-23T04:32:16.359Z,29.98
2019-05-23T04:34:46.073Z,25.37
2019-05-23T04:37:15.676Z,24.50
2019-05-23T04:39:45.460Z,25.75
2019-05-23T04:42:14.866Z,24.57
2019-05-23T04:44:44.860Z,26.85
2019-05-23T04:47:14.729Z,24.77
2019-05-23T04:49:44.323Z,20.48
2019-05-23T04:52:14.263Z,27.70
2019-05-23T04:54:44.012Z,31.12
2019-05-23T04:57:14.598Z,22.13
2019-05-23T04:59:44.137Z,23.90
2019-05-23T05:02:25.383Z,21.83
2019-05-23T05:04:46.374Z,21.50
2019-05-23T05:07:16.166Z,20.97
2019-05-23T05:09:45.616Z,23.60
2019-05-23T05:12:16.695Z,23.60
2019-05-23T05:14:46.315Z,19.50
2019-05-23T05:17:15.881Z,22.20
2019-05-23T05:19:45.904Z,22.37
2019-05-23T05:22:15.296Z,20.80
2019-05-23T05:24:44.839Z,21.70
2019-05-23T05:27:14.462Z,24.30
2019-05-23T05:29:43.886Z,18.90
2019-05-23T05:32:15.146Z,18.53
2019-05-23T05:34:44.665Z,19.40
2019-05-23T05:37:14.174Z,20.10
2019-05-23T05:39:44.089Z,21.77
2019-05-23T05:42:14.236Z,21.10
2019-05-23T05:44:43.902Z,19.03
2019-05-23T05:47:13.887Z,20.20
2019-05-23T05:49:43.503Z,20.50
2019-05-23T05:52:13.503Z,20.50
2019-05-23T05:54:43.190Z,21.77
2019-05-23T05:57:12.872Z,23.93
2019-05-23T05:59:42.431Z,22.63
2019-05-23T06:02:14.104Z,24.87
2019-05-23T06:04:43.601Z,25.03
2019-05-23T06:07:33.638Z,23.80
2019-05-23T06:10:05.050Z,23.80
2019-05-23T06:12:34.729Z,22.30
2019-05-23T06:15:05.203Z,21.90
2019-05-23T06:17:35.377Z,23.27
2019-05-23T06:20:05.470Z,24.03
2019-05-23T06:22:34.991Z,19.90
2019-05-23T06:25:05.780Z,23.10
2019-05-23T06:27:35.895Z,26.43
2019-05-23T06:30:08.770Z,21.40
2019-05-23T06:32:38.488Z,22.50
2019-05-23T06:35:08.232Z,21.77
2019-05-23T06:37:38.221Z,21.53
2019-05-23T06:40:08.413Z,23.00
2019-05-23T06:42:38.678Z,23.90
2019-05-23T06:45:08.751Z,26.00
2019-05-23T06:47:39.685Z,20.67
2019-05-23T06:50:14.373Z,23.03
2019-05-23T06:52:44.105Z,23.43
2019-05-23T06:55:13.751Z,24.07
2019-05-23T06:57:43.372Z,23.30
2019-05-23T07:00:17.135Z,24.10
2019-05-23T07:02:47.858Z,24.20
2019-05-23T07:05:20.235Z,19.90
2019-05-23T07:07:50.191Z,20.40
2019-05-23T07:10:19.860Z,21.77
2019-05-23T07:12:49.468Z,19.83
2019-05-23T07:15:19.491Z,17.77
2019-05-23T07:17:49.025Z,20.77
2019-05-23T07:20:18.676Z,19.80
2019-05-23T07:22:48.565Z,19.30
2019-05-23T07:25:18.065Z,20.63
2019-05-23T07:27:47.787Z,26.37
2019-05-23T07:30:21.762Z,20.13
2019-05-23T07:32:51.446Z,19.80
2019-05-23T07:35:21.307Z,19.90
2019-05-23T07:37:50.724Z,19.10
2019-05-23T07:40:20.467Z,19.80
2019-05-23T07:42:50.362Z,17.57
2019-05-23T07:45:24.021Z,18.53
2019-05-23T07:47:54.056Z,30.97
2019-05-23T07:50:23.770Z,23.13
2019-05-23T07:52:55.511Z,17.63
2019-05-23T07:55:30.663Z,17.87
2019-05-23T07:58:00.267Z,23.70
2019-05-23T08:00:32.856Z,16.43
2019-05-23T08:03:05.305Z,24.67
2019-05-23T08:05:35.255Z,14.93
2019-05-23T08:08:05.691Z,14.50
2019-05-23T08:10:35.469Z,16.17
2019-05-23T08:13:05.331Z,16.77
2019-05-23T08:15:35.986Z,15.20
2019-05-23T08:18:05.854Z,15.77
2019-05-23T08:20:35.339Z,14.47
2019-05-23T08:23:04.785Z,13.47
2019-05-23T08:25:34.375Z,15.10
2019-05-23T08:28:06.405Z,13.90
2019-05-23T08:30:36.125Z,13.20
2019-05-23T08:33:06.963Z,14.90
2019-05-23T08:35:36.819Z,16.50
2019-05-23T08:38:07.518Z,17.83
2019-05-23T08:48:29.295Z,12.87
2019-05-23T08:50:58.898Z,12.37
2019-05-23T09:01:32.698Z,11.73
2019-05-23T09:04:02.935Z,12.10
2019-05-23T10:38:22.748Z,9.90
2019-05-23T10:40:52.225Z,9.00
2019-05-23T10:43:21.591Z,9.50
2019-05-23T11:26:13.948Z,8.30
2019-05-23T11:28:43.219Z,9.63
2019-05-23T11:31:13.387Z,8.93
2019-05-23T12:25:51.269Z,6.70
2019-05-23T12:28:20.963Z,8.53
2019-05-23T12:30:50.645Z,8.60
2019-05-23T12:44:02.702Z,5.47
2019-05-23T12:46:32.286Z,5.90
2019-05-23T12:49:19.548Z,7.30
2019-05-23T12:51:50.470Z,5.10
2019-05-23T12:54:20.006Z,5.30
2019-05-23T12:56:49.859Z,5.40
2019-05-23T12:59:19.885Z,5.43
2019-05-23T13:01:51.370Z,5.40
2019-05-23T13:04:22.137Z,5.23
2019-05-23T13:06:51.709Z,4.90
2019-05-23T13:09:21.176Z,4.93
2019-05-23T13:11:51.047Z,5.50
2019-05-23T13:14:21.160Z,5.07
2019-05-23T13:16:50.539Z,4.90
2019-05-23T13:19:20.853Z,7.10
2019-05-23T13:21:50.456Z,5.70
2019-05-23T13:24:19.978Z,5.33
2019-05-23T13:26:49.424Z,5.37
2019-05-23T13:29:19.020Z,5.80
2019-05-23T13:31:48.592Z,4.80
2019-05-23T13:34:18.174Z,7.13
2019-05-23T13:36:47.804Z,4.50
2019-05-23T13:39:18.109Z,4.83
2019-05-23T13:41:47.694Z,7.10
2019-05-23T13:44:32.622Z,5.50
2019-05-23T13:46:48.629Z,4.43
2019-05-23T13:49:18.216Z,4.07
2019-05-23T13:51:48.151Z,6.07
2019-05-23T13:54:18.113Z,4.10
2019-05-23T13:56:48.150Z,4.70
2019-05-23T13:59:17.960Z,4.57
2019-05-23T14:01:48.145Z,4.97
2019-05-23T14:04:17.862Z,5.60
2019-05-23T14:06:47.430Z,7.33
2019-05-23T14:09:18.078Z,6.00
2019-05-23T14:11:47.673Z,4.50
2019-05-23T14:14:17.183Z,5.43
2019-05-23T14:17:03.500Z,4.73
2019-05-23T14:19:33.070Z,4.10
2019-05-23T14:22:02.801Z,5.73
2019-05-23T14:24:50.762Z,6.00
2019-05-23T14:27:40.052Z,4.83
2019-05-23T14:30:19.619Z,3.70
2019-05-23T14:32:54.415Z,4.87
2019-05-23T14:35:28.237Z,4.50
2019-05-23T14:37:59.496Z,4.33
2019-05-23T14:40:29.241Z,6.00
2019-05-23T14:43:17.678Z,4.03
2019-05-23T14:46:08.220Z,5.40
2019-05-23T14:48:46.112Z,3.90
2019-05-23T14:51:26.047Z,4.37
2019-05-23T14:54:00.787Z,4.70
2019-05-23T14:56:31.570Z,3.97
2019-05-23T14:59:01.038Z,6.20
2019-05-23T15:01:32.554Z,5.93
2019-05-23T15:04:02.580Z,4.10
2019-05-23T15:06:32.246Z,3.93
2019-05-23T15:09:01.839Z,4.30
2019-05-23T15:11:31.250Z,4.07
2019-05-23T15:14:00.821Z,4.10
2019-05-23T15:16:30.268Z,4.80
2019-05-23T15:19:00.177Z,4.60
2019-05-23T15:21:29.759Z,6.23
2019-05-23T15:23:59.325Z,3.70
2019-05-23T15:26:28.943Z,3.80
2019-05-23T15:28:58.426Z,5.53
2019-05-23T15:31:28.074Z,4.20
2019-05-23T15:33:57.562Z,3.73
2019-05-23T15:36:27.144Z,4.90
2019-05-23T15:39:08.720Z,3.70
2019-05-23T15:41:28.597Z,4.57
2019-05-23T15:43:58.200Z,3.93
2019-05-23T15:46:27.757Z,4.33
2019-05-23T15:48:57.255Z,5.17
2019-05-23T15:51:32.548Z,3.87
2019-05-23T15:54:07.673Z,6.70
2019-05-23T15:57:05.145Z,3.83
2019-05-23T15:59:45.441Z,3.70
2019-05-23T16:02:28.491Z,8.60
2019-05-23T16:05:00.273Z,5.37
2019-05-23T16:07:30.431Z,4.03
2019-05-23T16:10:00.157Z,4.53
2019-05-23T16:12:29.621Z,5.70
2019-05-23T16:14:59.212Z,6.93
2019-05-23T16:17:29.094Z,5.70
2019-05-23T16:19:58.601Z,4.20
2019-05-23T16:22:28.159Z,3.63
2019-05-23T16:24:57.751Z,4.80
2019-05-23T16:27:27.513Z,3.90
2019-05-23T16:29:57.315Z,4.07
2019-05-23T16:32:27.214Z,5.27
2019-05-23T16:34:56.717Z,3.50
2019-05-23T16:37:26.604Z,4.77
2019-05-23T16:39:56.151Z,4.63
2019-05-23T16:42:25.920Z,3.90
2019-05-23T16:44:55.624Z,12.80
2019-05-23T16:47:25.460Z,6.13
2019-05-23T16:49:55.594Z,4.13
2019-05-23T16:52:25.122Z,4.73
2019-05-23T16:54:56.373Z,4.60
2019-05-23T16:57:46.684Z,4.80
2019-05-23T17:00:34.242Z,5.10
2019-05-23T17:03:40.981Z,4.33
2019-05-23T17:06:26.148Z,5.47
2019-05-23T17:09:07.429Z,4.57
2019-05-23T17:11:52.129Z,3.90
2019-05-23T17:14:26.676Z,4.67
2019-05-23T17:17:10.342Z,5.13
2019-05-23T17:19:44.993Z,4.67
2019-05-23T17:22:30.384Z,23.23
2019-05-23T17:25:17.568Z,7.20
2019-05-23T17:28:12.223Z,6.37
2019-05-23T17:30:47.536Z,8.03
2019-05-23T17:33:17.565Z,5.20
2019-05-23T17:35:47.121Z,3.93
2019-05-23T17:38:17.288Z,7.17
2019-05-23T17:40:46.878Z,4.10
2019-05-23T17:43:16.687Z,3.33
2019-05-23T17:45:46.412Z,3.80
2019-05-23T17:48:16.167Z,5.07
2019-05-23T17:50:45.785Z,3.97
2019-05-23T17:53:15.307Z,5.63
2019-05-23T17:55:45.817Z,4.23
2019-05-23T17:58:16.278Z,4.80
2019-05-23T18:00:47.683Z,4.43
2019-05-23T18:03:17.555Z,7.13
2019-05-23T18:05:47.533Z,4.60
2019-05-23T18:08:17.550Z,5.70
2019-05-23T18:10:48.077Z,6.80
2019-05-23T18:13:18.810Z,10.40
2019-05-23T18:15:48.871Z,10.00
2019-05-23T18:18:18.869Z,4.10
2019-05-23T18:20:48.657Z,4.13
2019-05-23T18:23:18.338Z,4.60
2019-05-23T18:25:48.109Z,5.50
2019-05-23T18:28:19.460Z,6.20
2019-05-23T18:31:13.570Z,6.20
2019-05-23T18:33:43.970Z,3.70
2019-05-23T18:36:13.553Z,3.33
2019-05-23T18:38:43.157Z,4.80
2019-05-23T18:41:12.670Z,3.93
2019-05-23T18:43:43.301Z,4.30
2019-05-23T18:46:18.463Z,4.30
2019-05-23T18:48:48.169Z,4.00
2019-05-23T18:57:10.439Z,9.73
2019-05-23T18:59:40.189Z,4.50
2019-05-23T19:02:10.224Z,5.37
2019-05-23T19:04:39.771Z,4.60
2019-05-23T19:07:11.228Z,7.23
2019-05-23T19:09:42.785Z,4.30
2019-05-23T19:12:12.553Z,3.57
2019-05-23T19:14:42.094Z,3.53
2019-05-23T19:17:11.695Z,4.90
2019-05-23T19:19:41.175Z,3.97
2019-05-23T19:22:11.109Z,6.87
2019-05-23T19:24:40.584Z,3.87
2019-05-23T19:27:14.101Z,4.30
2019-05-23T19:29:43.202Z,4.50
2019-05-23T19:32:14.568Z,4.03
2019-05-23T19:34:44.028Z,4.77
2019-05-23T19:37:14.149Z,6.47
2019-05-23T19:39:43.744Z,3.10
2019-05-23T19:42:15.073Z,4.73
2019-05-23T19:44:44.597Z,5.00
2019-05-23T19:47:14.208Z,7.50
2019-05-23T19:49:43.760Z,3.57
2019-05-23T19:52:13.901Z,4.40
2019-05-23T19:54:43.612Z,5.20
2019-05-23T19:57:13.207Z,4.10
2019-05-23T19:59:42.726Z,4.70
2019-05-23T20:02:31.256Z,5.70
2019-05-23T20:05:08.191Z,4.90
2019-05-23T20:07:37.770Z,8.83
2019-05-23T20:10:08.489Z,8.73
2019-05-23T20:12:38.416Z,5.27
2019-05-23T20:15:08.732Z,5.77
2019-05-23T20:17:38.380Z,7.63
2019-05-23T20:20:08.561Z,6.27
2019-05-23T20:22:38.279Z,5.47
2019-05-23T20:25:08.798Z,4.00
2019-05-23T20:27:38.589Z,6.57
2019-05-23T20:30:11.101Z,4.07
2019-05-23T20:32:40.674Z,3.60
2019-05-23T20:35:10.551Z,6.50
2019-05-23T20:37:41.441Z,4.30
2019-05-23T20:40:11.090Z,5.17
2019-05-23T20:42:40.674Z,6.33
2019-05-23T20:45:10.165Z,4.23
2019-05-23T20:47:39.606Z,4.97
2019-05-23T20:50:09.299Z,9.20
2019-05-23T20:52:38.803Z,4.20
2019-05-23T20:55:08.493Z,4.77
2019-05-23T20:57:38.024Z,4.60
2019-05-23T21:00:09.477Z,4.67
2019-05-23T21:02:38.967Z,4.53
2019-05-23T21:05:09.284Z,4.00
2019-05-23T21:07:38.802Z,6.43
2019-05-23T21:10:08.822Z,4.50
2019-05-23T21:12:38.329Z,6.63
2019-05-23T21:15:07.944Z,9.23
2019-05-23T21:17:37.477Z,4.70
2019-05-23T21:20:08.672Z,5.87
2019-05-23T21:22:38.158Z,7.03
2019-05-23T21:25:07.790Z,6.53
2019-05-23T21:27:37.350Z,7.30
2019-05-23T21:30:06.892Z,6.13
2019-05-23T21:32:36.397Z,6.20
2019-05-23T21:35:06.735Z,4.50
2019-05-23T21:37:36.244Z,5.30
2019-05-23T21:40:06.430Z,7.27
2019-05-23T21:42:47.489Z,5.30
2019-05-23T21:45:07.908Z,5.27
2019-05-23T21:47:37.416Z,4.93
2019-05-23T21:50:07.209Z,6.27
2019-05-23T21:52:36.729Z,5.73
2019-05-23T21:55:06.635Z,6.50
2019-05-23T21:57:36.486Z,6.37
2019-05-23T22:00:08.492Z,5.73
2019-05-23T22:02:38.018Z,6.60
2019-05-23T22:05:14.561Z,6.63
2019-05-23T22:07:44.126Z,7.47
2019-05-23T22:10:13.949Z,5.80
2019-05-23T22:12:43.493Z,5.20
2019-05-23T22:15:17.394Z,7.63
2019-05-23T22:17:47.671Z,7.53
2019-05-23T22:20:17.670Z,5.57
2019-05-23T22:22:47.702Z,5.97
2019-05-23T22:25:21.127Z,6.47
2019-05-23T22:27:50.554Z,7.93
2019-05-23T22:30:20.140Z,5.00
2019-05-23T22:32:50.674Z,6.37
2019-05-23T22:35:20.906Z,6.23
2019-05-23T22:37:50.522Z,5.30
2019-05-23T22:40:20.096Z,6.93
2019-05-23T22:42:49.704Z,8.10
2019-05-23T22:45:22.096Z,7.13
2019-05-23T22:47:51.659Z,5.33
2019-05-23T22:50:21.270Z,7.63
2019-05-23T22:52:51.130Z,6.80
2019-05-23T22:55:20.617Z,7.97
2019-05-23T22:57:50.094Z,5.57
2019-05-23T23:00:26.153Z,6.30
2019-05-23T23:02:55.823Z,7.77
2019-05-23T23:05:25.276Z,6.07
2019-05-23T23:07:55.001Z,9.00
2019-05-23T23:10:24.433Z,8.67
2019-05-23T23:12:53.869Z,7.73
2019-05-23T23:15:24.415Z,7.03
2019-05-23T23:17:54.298Z,7.43
2019-05-23T23:20:23.659Z,6.73
2019-05-23T23:22:53.129Z,10.13
2019-05-23T23:25:22.636Z,9.67
2019-05-23T23:27:52.229Z,8.73
2019-05-23T23:30:24.996Z,7.63
2019-05-23T23:32:54.403Z,8.00
2019-05-23T23:35:23.870Z,10.00
2019-05-23T23:37:53.369Z,10.10
2019-05-23T23:40:22.862Z,8.93
2019-05-23T23:42:52.357Z,7.17
2019-05-23T23:45:39.441Z,9.10
2019-05-23T23:48:26.609Z,9.07
2019-05-23T23:51:13.981Z,8.63
2019-05-23T23:54:01.213Z,7.77
2019-05-23T23:56:48.501Z,9.70
2019-05-23T23:59:17.196Z,8.90
